首页
METAR-TAF:

METAR-TAF

机场 :

Luni

Sarzana, 意大利

纬度: 44-05N, 经度: 009-59E, 海拔: 9米

当前天气观测

该预报发布于1小时和1分钟前的11:55 UTC
静风
温度 12°C
湿度 58%
气压 1006 hPa
能见度10公里或以上
少量云层高于2500英尺

METAR: LIQW 031155Z 00000KT 9999 FEW025 12/04 Q1006 RMK BKN SCT070 VIS MIN 9999 WIND THR18 22002KT BLU

时间: 13:56 (12:56 UTC)

预报

该预报发布于1小时和56分钟前的11:00 UTC
预报有效从03日的 12点(UTC)到 03日的 21点(UTC)
风速6节,风向西
能见度10公里或以上
散云层高于2500英尺

TAF: LIQW 031100Z 0312/0321 26006KT 9999 SCT025

超过4000个机场的气象观测和天气预报(METAR&TAF报告)。

可查询的气象台以黄色和红色小点在地图上表示。

将鼠标移到小点上方,可查看气象台名称。

然后点击查看天气观测和预报。

如需切换地图:点击带黑十字的绿色按钮放大地图;点击带横线的绿色按钮缩小地图;或者点击绿色箭头查看邻近地区的地图。


METAR-TAF: